createdAt,value
2022-11-24T00:00:17.478Z,3.65
2022-11-24T00:03:19.907Z,3.40
2022-11-24T00:06:22.269Z,7.32
2022-11-24T00:09:24.379Z,8.07
2022-11-24T00:12:26.485Z,5.20
2022-11-24T00:15:28.572Z,4.90
2022-11-24T00:18:31.249Z,4.00
2022-11-24T00:21:33.368Z,6.22
2022-11-24T00:24:35.696Z,4.18
2022-11-24T00:27:37.958Z,4.90
2022-11-24T00:30:40.038Z,5.78
2022-11-24T00:33:42.229Z,5.47
2022-11-24T00:36:44.488Z,4.35
2022-11-24T00:39:46.742Z,4.90
2022-11-24T00:42:48.854Z,7.35
2022-11-24T00:45:51.099Z,2.85
2022-11-24T00:48:53.967Z,5.38
2022-11-24T00:51:56.049Z,4.90
2022-11-24T00:54:58.126Z,4.15
2022-11-24T00:58:00.242Z,5.43
2022-11-24T01:01:16.526Z,6.90
2022-11-24T01:04:18.634Z,4.38
2022-11-24T01:07:20.699Z,5.30
2022-11-24T01:10:22.764Z,5.80
2022-11-24T01:13:24.789Z,7.05
2022-11-24T01:16:29.235Z,6.22
2022-11-24T01:19:31.273Z,8.30
2022-11-24T01:22:34.742Z,7.13
2022-11-24T01:25:40.065Z,7.95
2022-11-24T01:28:46.936Z,5.60
2022-11-24T01:31:49.333Z,7.47
2022-11-24T01:34:51.367Z,4.13
2022-11-24T01:37:53.440Z,6.18
2022-11-24T01:41:07.617Z,6.15
2022-11-24T01:44:30.089Z,5.78
2022-11-24T01:47:37.008Z,6.32
2022-11-24T01:50:41.653Z,6.37
2022-11-24T01:53:49.312Z,6.30
2022-11-24T01:56:54.188Z,6.28
2022-11-24T02:00:17.079Z,8.52
2022-11-24T02:03:23.237Z,5.45
2022-11-24T02:06:30.415Z,6.20
2022-11-24T02:09:45.307Z,8.50
2022-11-24T02:12:48.418Z,7.22
2022-11-24T02:15:50.552Z,4.53
2022-11-24T02:18:52.726Z,6.18
2022-11-24T02:21:54.779Z,5.63
2022-11-24T02:25:08.958Z,7.85
2022-11-24T02:28:15.062Z,7.38
2022-11-24T02:31:17.218Z,8.55
2022-11-24T02:34:20.598Z,7.80
2022-11-24T02:37:22.618Z,6.45
2022-11-24T02:40:27.713Z,5.55
2022-11-24T02:43:32.385Z,3.33
2022-11-24T02:46:34.441Z,6.07
2022-11-24T02:49:36.759Z,6.22
2022-11-24T02:52:38.809Z,3.38
2022-11-24T02:55:40.909Z,5.63
2022-11-24T02:58:42.938Z,8.48
2022-11-24T03:01:45.011Z,6.13
2022-11-24T03:04:47.097Z,6.32
2022-11-24T03:07:49.247Z,5.25
2022-11-24T03:10:51.350Z,4.07
2022-11-24T03:13:53.401Z,7.05
2022-11-24T03:16:55.458Z,4.95
2022-11-24T03:20:03.001Z,6.07
2022-11-24T03:23:06.531Z,5.15
2022-11-24T03:26:10.407Z,10.48
2022-11-24T03:29:12.495Z,5.72
2022-11-24T03:32:14.525Z,5.60
2022-11-24T03:35:16.702Z,5.28
2022-11-24T03:38:19.386Z,6.07
2022-11-24T03:41:21.459Z,6.03
2022-11-24T03:44:23.486Z,7.30
2022-11-24T03:47:25.547Z,5.65
2022-11-24T03:50:27.592Z,6.10
2022-11-24T03:53:31.178Z,7.40
2022-11-24T03:56:33.323Z,4.90
2022-11-24T03:59:35.415Z,7.78
2022-11-24T04:02:38.256Z,5.40
2022-11-24T04:05:40.482Z,3.42
2022-11-24T04:08:42.520Z,4.32
2022-11-24T04:12:04.938Z,4.32
2022-11-24T04:15:07.517Z,3.45
2022-11-24T04:18:10.504Z,5.70
2022-11-24T04:24:32.875Z,4.97
2022-11-24T04:27:36.089Z,7.93
2022-11-24T04:30:40.246Z,5.20
2022-11-24T04:33:42.310Z,3.75
2022-11-24T04:36:44.369Z,6.22
2022-11-24T04:39:46.464Z,8.00
2022-11-24T04:42:55.735Z,5.88
2022-11-24T04:46:00.861Z,4.53
2022-11-24T04:49:03.050Z,5.55
2022-11-24T04:52:05.182Z,4.10
2022-11-24T04:55:08.276Z,3.45
2022-11-24T04:58:13.169Z,4.03
2022-11-24T05:01:15.448Z,5.43
2022-11-24T05:04:18.866Z,5.95
2022-11-24T05:07:21.034Z,8.07
2022-11-24T05:10:35.135Z,3.42
2022-11-24T05:13:37.228Z,4.82
2022-11-24T05:16:39.334Z,3.60
2022-11-24T05:19:41.498Z,4.43
2022-11-24T05:22:43.756Z,7.30
2022-11-24T05:25:47.741Z,5.88
2022-11-24T05:28:50.108Z,9.98
2022-11-24T05:31:52.222Z,7.20
2022-11-24T05:34:54.689Z,7.88
2022-11-24T05:37:58.665Z,13.27
2022-11-24T05:41:04.908Z,8.02
2022-11-24T05:44:07.050Z,9.50
2022-11-24T05:47:09.204Z,5.68
2022-11-24T05:50:13.036Z,7.43
2022-11-24T05:53:15.104Z,7.15
2022-11-24T05:56:17.220Z,8.50
2022-11-24T05:59:19.414Z,6.47
2022-11-24T06:02:21.641Z,8.75
2022-11-24T06:05:23.848Z,5.72
2022-11-24T06:08:30.920Z,9.10
2022-11-24T06:11:33.362Z,6.70
2022-11-24T06:14:35.897Z,8.27
2022-11-24T06:17:38.592Z,8.57
2022-11-24T06:20:42.134Z,9.70
2022-11-24T06:23:44.330Z,7.93
2022-11-24T06:26:46.455Z,7.53
2022-11-24T06:29:48.569Z,6.93
2022-11-24T06:32:55.495Z,7.40
2022-11-24T06:36:04.837Z,6.87
2022-11-24T06:39:07.303Z,11.18
2022-11-24T06:42:09.396Z,9.32
2022-11-24T06:45:11.627Z,7.90
2022-11-24T06:48:13.708Z,9.68
2022-11-24T06:51:15.970Z,9.10
2022-11-24T06:54:21.037Z,7.78
2022-11-24T06:57:23.125Z,8.77
2022-11-24T07:00:25.280Z,10.43
2022-11-24T07:03:27.493Z,8.10
2022-11-24T07:06:29.575Z,6.72
2022-11-24T07:09:31.693Z,10.85
2022-11-24T07:12:36.853Z,8.38
2022-11-24T07:15:39.076Z,6.25
2022-11-24T07:18:42.227Z,8.93
2022-11-24T07:21:44.275Z,8.00
2022-11-24T07:24:46.317Z,6.18
2022-11-24T07:27:48.368Z,6.80
2022-11-24T07:30:50.444Z,6.50
2022-11-24T07:33:53.703Z,9.75
2022-11-24T07:36:55.949Z,8.50
2022-11-24T07:39:58.034Z,9.65
2022-11-24T07:43:01.511Z,8.85
2022-11-24T07:46:07.579Z,6.95
2022-11-24T07:49:09.650Z,9.75
2022-11-24T07:52:11.687Z,10.20
2022-11-24T07:55:13.857Z,9.38
2022-11-24T07:58:15.890Z,11.20
2022-11-24T08:01:18.341Z,12.55
2022-11-24T08:04:20.466Z,6.78
2022-11-24T08:07:22.645Z,11.82
2022-11-24T08:10:24.765Z,8.30
2022-11-24T08:13:26.773Z,7.57
2022-11-24T08:16:29.029Z,5.35
2022-11-24T08:19:32.310Z,6.30
2022-11-24T08:22:34.390Z,7.68
2022-11-24T08:25:37.033Z,7.00
2022-11-24T08:28:39.142Z,11.05
2022-11-24T08:31:41.219Z,9.90
2022-11-24T08:34:43.311Z,9.35
2022-11-24T08:37:45.588Z,13.13
2022-11-24T08:40:47.675Z,14.77
2022-11-24T08:43:49.731Z,10.68
2022-11-24T08:46:53.586Z,9.65
2022-11-24T08:49:55.602Z,7.18
2022-11-24T08:52:57.693Z,9.60
2022-11-24T08:56:00.765Z,10.77
2022-11-24T08:59:03.217Z,9.23
2022-11-24T09:02:06.197Z,8.90
2022-11-24T09:05:28.804Z,7.55
2022-11-24T09:08:31.196Z,10.32
2022-11-24T09:11:34.331Z,12.50
2022-11-24T09:14:36.539Z,10.02
2022-11-24T09:17:38.675Z,11.18
2022-11-24T09:20:40.939Z,8.55
2022-11-24T09:23:43.358Z,10.60
2022-11-24T09:26:47.619Z,10.48
2022-11-24T09:29:50.002Z,10.60
2022-11-24T09:32:52.049Z,9.77
2022-11-24T09:35:54.117Z,10.20
2022-11-24T09:38:56.277Z,13.65
2022-11-24T09:42:17.253Z,11.65
2022-11-24T09:46:05.540Z,10.85
2022-11-24T09:49:34.212Z,10.52
2022-11-24T09:53:01.788Z,7.40
2022-11-24T09:56:22.541Z,13.63
2022-11-24T09:59:25.148Z,11.75
2022-11-24T10:02:27.322Z,9.23
2022-11-24T10:05:29.846Z,8.30
2022-11-24T10:08:54.313Z,8.30
2022-11-24T10:12:05.502Z,10.38
2022-11-24T10:15:39.710Z,11.32
2022-11-24T10:19:16.593Z,9.25
2022-11-24T10:22:52.389Z,7.13
2022-11-24T10:25:59.048Z,12.00
2022-11-24T10:29:01.840Z,11.93
2022-11-24T10:32:07.776Z,6.72
2022-11-24T10:35:18.826Z,12.93
2022-11-24T10:38:29.917Z,10.70
2022-11-24T10:42:02.950Z,9.73
2022-11-24T10:45:12.120Z,13.43
2022-11-24T10:48:25.626Z,10.75
2022-11-24T10:52:08.648Z,9.85
2022-11-24T10:55:10.871Z,13.43
2022-11-24T10:58:16.559Z,10.52
2022-11-24T11:01:21.250Z,17.02
2022-11-24T11:04:43.684Z,22.10
2022-11-24T11:07:45.775Z,10.95
2022-11-24T11:10:50.517Z,15.90
2022-11-24T11:14:01.672Z,15.45
2022-11-24T11:17:36.449Z,28.15
2022-11-24T11:20:38.509Z,30.35
2022-11-24T11:23:40.594Z,38.28
2022-11-24T11:26:42.895Z,31.85
2022-11-24T11:36:51.885Z,44.80
2022-11-24T11:39:55.005Z,25.75
2022-11-24T11:43:12.106Z,19.55
2022-11-24T11:46:17.677Z,18.55
2022-11-24T11:49:19.925Z,26.83
2022-11-24T11:52:32.652Z,20.75
2022-11-24T11:56:12.826Z,16.42
2022-11-24T11:59:32.979Z,13.77
2022-11-24T12:02:54.381Z,10.57
2022-11-24T12:06:15.508Z,9.02
2022-11-24T12:09:45.257Z,11.52
2022-11-24T12:13:08.234Z,13.73
2022-11-24T12:16:31.106Z,35.60
2022-11-24T12:19:36.215Z,17.80
2022-11-24T12:22:57.759Z,15.55
2022-11-24T12:26:37.910Z,9.20
2022-11-24T12:29:57.826Z,10.88
2022-11-24T12:33:28.480Z,12.48
2022-11-24T12:36:55.269Z,15.40
2022-11-24T12:40:09.234Z,13.55
2022-11-24T12:43:27.316Z,13.60
2022-11-24T12:46:51.993Z,14.73
2022-11-24T12:50:11.381Z,11.00
2022-11-24T12:53:28.663Z,14.20
2022-11-24T12:57:07.608Z,12.23
2022-11-24T13:00:38.424Z,14.68
2022-11-24T13:04:17.265Z,16.60
2022-11-24T13:07:38.020Z,14.10
2022-11-24T13:10:55.895Z,14.50
2022-11-24T13:14:22.688Z,13.30
2022-11-24T13:17:47.622Z,11.02
2022-11-24T13:20:54.295Z,15.73
2022-11-24T13:24:04.480Z,16.40
2022-11-24T13:27:15.865Z,17.85
2022-11-24T13:30:35.934Z,15.32
2022-11-24T13:33:38.525Z,12.93
2022-11-24T13:36:52.758Z,15.05
2022-11-24T13:40:17.949Z,13.35
2022-11-24T13:43:20.203Z,8.38
2022-11-24T13:47:05.753Z,16.63
2022-11-24T13:50:21.609Z,13.68
2022-11-24T13:53:45.344Z,12.77
2022-11-24T13:56:47.460Z,14.10
2022-11-24T13:59:49.610Z,11.57
2022-11-24T14:02:53.207Z,10.93
2022-11-24T14:05:55.300Z,9.57
2022-11-24T14:08:59.662Z,10.82
2022-11-24T14:12:24.081Z,14.35
2022-11-24T14:15:29.457Z,12.48
2022-11-24T14:18:32.942Z,14.30
2022-11-24T14:21:42.060Z,8.95
2022-11-24T14:24:45.570Z,10.05
2022-11-24T14:27:47.865Z,14.20
2022-11-24T14:30:50.143Z,10.98
2022-11-24T14:34:12.876Z,13.35
2022-11-24T14:37:15.082Z,12.85
2022-11-24T14:40:42.695Z,12.02
2022-11-24T14:43:44.754Z,12.15
2022-11-24T14:46:47.210Z,15.45
2022-11-24T14:49:49.503Z,9.52
2022-11-24T14:52:58.191Z,11.95
2022-11-24T14:56:22.733Z,14.68
2022-11-24T14:59:26.800Z,11.27
2022-11-24T15:02:46.257Z,17.70
2022-11-24T15:05:53.028Z,10.30
2022-11-24T15:08:55.237Z,7.78
2022-11-24T15:11:57.255Z,10.73
2022-11-24T15:15:22.614Z,8.35
2022-11-24T15:18:37.914Z,7.50
2022-11-24T15:21:39.954Z,8.23
2022-11-24T15:24:51.800Z,8.82
2022-11-24T15:27:53.863Z,10.57
2022-11-24T15:31:01.380Z,7.70
2022-11-24T15:34:03.481Z,10.10
2022-11-24T15:37:05.526Z,11.15
2022-11-24T15:40:09.327Z,7.18
2022-11-24T15:43:35.541Z,8.70
2022-11-24T15:46:38.792Z,7.50
2022-11-24T15:49:40.953Z,6.35
2022-11-24T15:52:43.188Z,6.32
2022-11-24T15:55:45.355Z,6.03
2022-11-24T15:58:47.367Z,5.65
2022-11-24T16:01:50.726Z,10.48
2022-11-24T16:04:52.990Z,8.93
2022-11-24T16:07:55.075Z,6.90
2022-11-24T16:10:57.210Z,8.60
2022-11-24T16:13:59.352Z,6.35
2022-11-24T16:17:01.507Z,5.18
2022-11-24T16:20:04.132Z,7.22
2022-11-24T16:23:06.498Z,4.93
2022-11-24T16:26:09.369Z,7.70
2022-11-24T16:29:11.502Z,5.07
2022-11-24T16:32:13.555Z,7.47
2022-11-24T16:35:16.068Z,10.60
2022-11-24T16:38:19.145Z,12.32
2022-11-24T16:41:21.842Z,6.60
2022-11-24T16:44:23.868Z,7.63
2022-11-24T16:47:26.046Z,7.80
2022-11-24T16:50:28.130Z,9.52
2022-11-24T16:53:30.145Z,8.63
2022-11-24T16:56:32.383Z,8.82
2022-11-24T16:59:34.638Z,10.60
2022-11-24T17:02:36.833Z,14.30
2022-11-24T17:05:38.893Z,9.20
2022-11-24T17:08:41.372Z,6.70
2022-11-24T17:11:43.429Z,7.85
2022-11-24T17:15:03.097Z,8.05
2022-11-24T17:18:23.997Z,6.93
2022-11-24T17:21:27.956Z,4.38
2022-11-24T17:24:30.052Z,8.48
2022-11-24T17:27:32.200Z,10.00
2022-11-24T17:30:34.249Z,6.28
2022-11-24T17:33:36.410Z,5.32
2022-11-24T17:36:39.700Z,8.18
2022-11-24T17:39:42.372Z,9.18
2022-11-24T17:42:45.353Z,7.78
2022-11-24T17:45:56.872Z,8.38
2022-11-24T17:48:58.978Z,6.03
2022-11-24T17:52:01.026Z,6.28
2022-11-24T17:55:03.272Z,9.30
2022-11-24T17:58:05.397Z,6.68
2022-11-24T18:01:07.705Z,11.05
2022-11-24T18:04:09.782Z,8.13
2022-11-24T18:07:11.889Z,5.20
2022-11-24T18:10:14.035Z,8.50
2022-11-24T18:13:34.247Z,5.65
2022-11-24T18:16:38.194Z,6.63
2022-11-24T18:19:40.289Z,6.35
2022-11-24T18:23:04.500Z,4.53
2022-11-24T18:26:05.592Z,7.07
2022-11-24T18:29:08.053Z,5.82
2022-11-24T18:32:10.218Z,5.95
2022-11-24T18:35:12.443Z,5.40
2022-11-24T18:38:14.526Z,5.70
2022-11-24T18:41:16.748Z,3.55
2022-11-24T18:44:18.945Z,5.65
2022-11-24T18:47:21.013Z,4.72
2022-11-24T18:50:23.140Z,4.78
2022-11-24T18:53:26.620Z,2.38
2022-11-24T18:56:29.179Z,4.63
2022-11-24T18:59:31.267Z,3.53
2022-11-24T19:02:33.590Z,2.80
2022-11-24T19:05:35.729Z,3.83
2022-11-24T19:08:37.903Z,3.33
2022-11-24T19:11:42.004Z,5.55
2022-11-24T19:14:44.113Z,3.35
2022-11-24T19:17:47.430Z,5.88
2022-11-24T19:20:49.654Z,4.88
2022-11-24T19:23:51.686Z,7.75
2022-11-24T19:26:54.466Z,7.57
2022-11-24T19:29:56.677Z,9.75
2022-11-24T19:32:58.813Z,8.13
2022-11-24T19:36:03.040Z,7.07
2022-11-24T19:39:05.440Z,7.80
2022-11-24T19:42:07.662Z,6.18
2022-11-24T19:45:10.850Z,6.53
2022-11-24T19:48:13.022Z,5.07
2022-11-24T19:51:20.767Z,9.00
2022-11-24T19:54:22.877Z,6.93
2022-11-24T19:57:24.946Z,10.80
2022-11-24T20:00:30.663Z,6.65
2022-11-24T20:03:34.790Z,8.27
2022-11-24T20:06:42.598Z,5.65
2022-11-24T20:12:49.715Z,5.72
2022-11-24T20:15:51.735Z,14.10
2022-11-24T20:18:55.245Z,11.50
2022-11-24T20:21:57.303Z,19.08
2022-11-24T20:24:59.413Z,8.73
2022-11-24T20:28:01.477Z,7.95
2022-11-24T20:31:07.476Z,4.70
2022-11-24T20:34:09.714Z,6.70
2022-11-24T20:37:13.573Z,6.18
2022-11-24T20:40:15.715Z,4.13
2022-11-24T20:43:17.745Z,3.67
2022-11-24T20:46:21.698Z,5.18
2022-11-24T20:49:23.810Z,6.15
2022-11-24T20:52:25.881Z,4.45
2022-11-24T20:55:27.942Z,4.47
2022-11-24T20:58:30.231Z,5.20
2022-11-24T21:01:40.972Z,5.47
2022-11-24T21:04:43.012Z,8.18
2022-11-24T21:07:45.110Z,7.57
2022-11-24T21:10:57.124Z,9.85
2022-11-24T21:13:59.414Z,6.53
2022-11-24T21:17:01.610Z,5.20
2022-11-24T21:20:03.931Z,6.72
2022-11-24T21:23:05.992Z,7.43
2022-11-24T21:26:11.681Z,6.13
2022-11-24T21:29:23.316Z,5.50
2022-11-24T21:32:26.560Z,6.90
2022-11-24T21:35:28.661Z,7.28
2022-11-24T21:38:30.942Z,5.65
2022-11-24T21:41:33.712Z,7.53
2022-11-24T21:44:36.976Z,6.70
2022-11-24T21:47:39.252Z,5.72
2022-11-24T21:50:41.295Z,5.53
2022-11-24T21:53:44.312Z,17.45
2022-11-24T21:56:46.385Z,20.08
2022-11-24T21:59:48.626Z,13.75
2022-11-24T22:02:50.775Z,25.83
2022-11-24T22:05:57.630Z,14.10
2022-11-24T22:08:59.684Z,15.32
2022-11-24T22:12:02.059Z,10.40
2022-11-24T22:15:04.617Z,8.60
2022-11-24T22:18:06.652Z,8.65
2022-11-24T22:21:14.834Z,9.02
2022-11-24T22:24:16.974Z,12.93
2022-11-24T22:27:19.168Z,7.95
2022-11-24T22:30:21.222Z,12.63
2022-11-24T22:33:23.389Z,10.25
2022-11-24T22:36:28.218Z,6.00
2022-11-24T22:39:30.268Z,6.97
2022-11-24T22:42:32.428Z,7.60
2022-11-24T22:45:35.700Z,6.78
2022-11-24T22:48:38.241Z,8.38
2022-11-24T22:51:40.421Z,8.32
2022-11-24T22:54:42.580Z,6.72
2022-11-24T22:57:48.154Z,5.93
2022-11-24T23:00:50.516Z,5.95
2022-11-24T23:03:54.631Z,6.90
2022-11-24T23:06:56.789Z,7.85
2022-11-24T23:09:58.829Z,8.13
2022-11-24T23:13:00.876Z,11.05
2022-11-24T23:16:07.452Z,11.75
2022-11-24T23:19:09.632Z,10.40
2022-11-24T23:22:11.801Z,10.13
2022-11-24T23:25:13.927Z,9.02
2022-11-24T23:28:16.012Z,8.38
2022-11-24T23:31:20.771Z,9.32
2022-11-24T23:34:22.880Z,6.60
2022-11-24T23:37:39.330Z,9.10
2022-11-24T23:40:47.005Z,7.28
2022-11-24T23:43:49.120Z,9.10
2022-11-24T23:46:51.244Z,9.52
2022-11-24T23:49:53.308Z,9.90
2022-11-24T23:52:55.520Z,8.43
2022-11-24T23:55:57.688Z,9.63
2022-11-24T23:59:00.769Z,8.65
